»·PEaware :: N645BJ KSFO-KSNA

N645BJ :: KSFO-KSNA

FLIGHT INFORMATION

Flight Status: Arrived
Operator: Privately registered:
United States
More flights under this callsign
Pilot: Daniel R. (17770)
Aircraft: BOEING 757-200
(B752)
More flights by this aircraft type
Origin: KSFO San Francisco Intl
United States
Destination: KSNA John Wayne-Orange Co
United States
More flights between these airports :: More routes between these airports
Route: OFFSH1 MCKEY TILLT TILLT2
File this flight plan on PilotEdge
Remarks:
Altitude:
(Current/Filed)
31,000ft
Speed:
(Current/Filed)
437kts
Departed: 01-Dec-18 07:31 PM
Arrived: 01-Dec-18 08:34 PM
Distance/Time
Traveled:
323nm/1:03
Distance/Time
To Go:
Arrived

Flight Plot

Page will automatically refresh every two minutes.

Flight plan parsing failed; only flown route is shown


Map Options




Map Legend


Flown Route
Filed Route
Departure Airport
Arrival Airport
Navaid (VOR, NDB)
Fix

Horizontal Profiles

Position Reports

Time Latitude Longitude Heading Altitude Ground
Speed
01-Dec-18 19:02 37.628080 -122.382658 299 19ft 0kts
01-Dec-18 19:03 37.628080 -122.382658 299 19ft 0kts
01-Dec-18 19:04 37.628080 -122.382658 299 19ft 0kts
01-Dec-18 19:05 37.628080 -122.382658 299 19ft 0kts
01-Dec-18 19:06 37.628080 -122.382658 299 19ft 0kts
01-Dec-18 19:07 37.628080 -122.382658 299 19ft 0kts
01-Dec-18 19:08 37.628080 -122.382658 299 19ft 0kts
01-Dec-18 19:09 37.628080 -122.382658 299 19ft 0kts
01-Dec-18 19:10 37.628080 -122.382658 299 19ft 0kts
01-Dec-18 19:11 37.628080 -122.382658 300 19ft 0kts
01-Dec-18 19:12 37.628080 -122.382658 300 19ft 0kts
01-Dec-18 19:13 37.628080 -122.382658 300 19ft 0kts
01-Dec-18 19:14 37.628080 -122.382658 300 19ft 0kts
01-Dec-18 19:15 37.628080 -122.382658 300 19ft 0kts
01-Dec-18 19:16 37.628080 -122.382658 300 19ft 0kts
01-Dec-18 19:17 37.628080 -122.382658 300 19ft 0kts
01-Dec-18 19:18 37.628080 -122.382658 300 19ft 0kts
01-Dec-18 19:19 37.628080 -122.382658 300 19ft 0kts
01-Dec-18 19:20 37.628080 -122.382658 300 19ft 0kts
01-Dec-18 19:21 37.628080 -122.382658 300 19ft 0kts
01-Dec-18 19:22 37.628080 -122.382658 300 19ft 0kts
01-Dec-18 19:23 37.628079 -122.382658 300 19ft 0kts
01-Dec-18 19:24 37.627977 -122.382132 255 19ft 2kts
01-Dec-18 19:25 37.628246 -122.381723 207 18ft 0kts
01-Dec-18 19:26 37.628245 -122.381724 207 18ft 0kts
01-Dec-18 19:27 37.627169 -122.382445 209 20ft 15kts
01-Dec-18 19:28 37.625875 -122.382802 131 24ft 9kts
01-Dec-18 19:29 37.622254 -122.374257 119 21ft 36kts
01-Dec-18 19:30 37.617515 -122.362972 117 13ft 38kts
01-Dec-18 19:31 37.614759 -122.356843 161 12ft 0kts
01-Dec-18 19:32 37.614759 -122.356843 161 12ft 0kts
01-Dec-18 19:33 37.614120 -122.358569 298 12ft 18kts
01-Dec-18 19:34 37.625909 -122.385195 300 1377ft 151kts
01-Dec-18 19:35 37.647187 -122.435216 295 2697ft 128kts
01-Dec-18 19:36 37.660442 -122.469849 296 4433ft 149kts
01-Dec-18 19:37 37.645848 -122.526081 216 6269ft 196kts
01-Dec-18 19:38 37.603045 -122.557882 216 7698ft 231kts
01-Dec-18 19:39 37.539543 -122.606790 216 10084ft 293kts
01-Dec-18 19:40 37.468416 -122.660505 216 12587ft 304kts
01-Dec-18 19:41 37.387588 -122.696640 181 15136ft 342kts
01-Dec-18 19:42 37.285489 -122.671601 170 16590ft 421kts
01-Dec-18 19:43 37.168637 -122.633982 175 19031ft 450kts
01-Dec-18 19:44 37.045243 -122.596810 176 21571ft 467kts
01-Dec-18 19:45 36.916269 -122.559928 178 24100ft 485kts
01-Dec-18 19:46 36.783076 -122.525329 179 26815ft 491kts
01-Dec-18 19:47 36.651911 -122.491326 180 30029ft 475kts
01-Dec-18 19:48 36.522571 -122.457935 180 31100ft 469kts
01-Dec-18 19:49 36.398121 -122.396210 149 31111ft 511kts
01-Dec-18 19:50 36.305476 -122.263396 133 31086ft 524kts
01-Dec-18 19:51 36.212598 -122.126311 135 31093ft 515kts
01-Dec-18 19:52 36.119768 -121.991714 135 31093ft 517kts
01-Dec-18 19:53 36.026535 -121.857120 135 31102ft 517kts
01-Dec-18 19:54 35.933142 -121.722860 135 31098ft 520kts
01-Dec-18 19:55 35.840188 -121.589743 135 31096ft 519kts
01-Dec-18 19:56 35.746041 -121.455459 135 31069ft 519kts
01-Dec-18 19:57 35.654154 -121.324878 136 31058ft 512kts
01-Dec-18 19:58 35.561165 -121.193277 136 31060ft 516kts
01-Dec-18 19:59 35.473049 -121.054351 122 31069ft 522kts
01-Dec-18 20:00 35.379947 -120.922491 144 31075ft 509kts
01-Dec-18 20:01 35.274683 -120.807643 145 31076ft 508kts
01-Dec-18 20:02 35.169230 -120.694220 145 31085ft 505kts
01-Dec-18 20:03 35.063118 -120.580531 145 31083ft 507kts
01-Dec-18 20:04 34.949588 -120.483839 154 31092ft 498kts
01-Dec-18 20:05 34.834101 -120.390589 154 31097ft 498kts
01-Dec-18 20:06 34.720541 -120.299068 155 31066ft 492kts
01-Dec-18 20:07 34.606647 -120.207769 155 31057ft 492kts
01-Dec-18 20:08 34.492477 -120.116600 155 31060ft 492kts
01-Dec-18 20:09 34.378125 -120.025598 155 31036ft 492kts
01-Dec-18 20:10 34.263764 -119.934877 155 31030ft 492kts
01-Dec-18 20:11 34.149688 -119.844692 155 31048ft 490kts
01-Dec-18 20:12 34.047231 -119.730693 124 28327ft 519kts
01-Dec-18 20:13 33.973740 -119.583393 123 25390ft 498kts
01-Dec-18 20:14 33.903285 -119.443407 123 23083ft 474kts
01-Dec-18 20:15 33.837630 -119.310304 122 21026ft 465kts
01-Dec-18 20:16 33.772718 -119.178847 122 18719ft 449kts
01-Dec-18 20:17 33.710056 -119.052427 121 16637ft 431kts
01-Dec-18 20:18 33.649820 -118.931310 121 14617ft 416kts
01-Dec-18 20:19 33.591365 -118.814166 121 12883ft 397kts
01-Dec-18 20:20 33.558198 -118.690743 98 11168ft 385kts
01-Dec-18 20:21 33.539044 -118.572759 98 10110ft 315kts
01-Dec-18 20:22 33.522747 -118.471855 96 8853ft 306kts
01-Dec-18 20:23 33.519230 -118.370784 89 7623ft 294kts
01-Dec-18 20:24 33.535219 -118.279552 65 6418ft 285kts
01-Dec-18 20:25 33.563215 -118.191380 66 5314ft 264kts
01-Dec-18 20:26 33.598097 -118.123158 52 5157ft 231kts
01-Dec-18 20:27 33.633162 -118.060145 51 5008ft 227kts
01-Dec-18 20:28 33.661582 -118.009035 51 4990ft 226kts
01-Dec-18 20:29 33.689001 -117.959666 51 4990ft 226kts
01-Dec-18 20:30 33.726822 -117.927040 22 4385ft 204kts
01-Dec-18 20:31 33.771175 -117.899161 21 3509ft 191kts
01-Dec-18 20:32 33.795359 -117.857006 91 2787ft 196kts
01-Dec-18 20:33 33.763976 -117.816559 173 2049ft 190kts
01-Dec-18 20:34 33.730789 -117.833522 211 1371ft 131kts
01-Dec-18 20:35 33.704845 -117.850393 210 856ft 136kts
01-Dec-18 20:36 33.677794 -117.867437 209 69ft 110kts
01-Dec-18 20:37 33.669232 -117.871728 132 68ft 0kts
01-Dec-18 20:38 33.669112 -117.870995 54 68ft 9kts
01-Dec-18 20:39 33.671200 -117.868791 35 68ft 18kts
01-Dec-18 20:40 33.671682 -117.867247 115 68ft 0kts
01-Dec-18 20:41 33.671682 -117.867247 115 68ft 0kts
01-Dec-18 20:42 33.671682 -117.867247 115 68ft 0kts
01-Dec-18 20:43 33.671682 -117.867247 115 68ft 0kts
01-Dec-18 20:44 33.671682 -117.867247 115 68ft 0kts
01-Dec-18 20:45 33.671682 -117.867247 115 68ft 0kts
01-Dec-18 20:46 33.671682 -117.867247 115 68ft 0kts
01-Dec-18 20:47 33.671682 -117.867247 115 68ft 0kts

Navigation Log

Ident Type
Flight plan parsing failed, navigation log unavailable